Redding, CA

11:50 AM PDT on September 01, 2014 (GMT -0700)
Dartmouth Drive | Change Station
CLOSE
Current Station
Personal Weather Station
Location: Redding, CA
Elevation: 768 ft
Nearby Weather Stations

Elev 768 ft 40.56 °N, 122.43 °W | Updated 4 minutes ago

Clear
Clear
92.1 °F
Feels Like 89 °F
N
10.9
Wind Variable Wind from East

Today
High -- | Low -- °F
--% Chance of Precip.
Yesterday
High -- | Low -- °F
Precip. -- in
6:36 AM 7:41 PM
Waxing Crescent, 43% visible
Pressure 29.82 in
Visibility 10.0 miles
Clouds Clear
Heat Index 89 °F
Dew Point 49 °F
Humidity 23%
Rainfall 0.00 in
Snow Depth Not available.
UV 6 out of 12
Pollen 9.40 out of 12
Air Quality Not available.
Flu Activity Not available.
METAR KRDD 011753Z 34010KT 10SM CLR 31/05 A2984 RMK AO2 SLP098 T03110050 10311 20239 58005

More Conditions Fewer Conditions

Pressure 29.82 in
Visibility 10.0 miles
Clouds Clear
Heat Index 89 °F
Dew Point 49 °F
Humidity 23%
Rainfall 0.00 in
Snow Depth Not available.
UV 6 out of 12
Pollen 9.40 out of 12
Air Quality Not available.
Flu Activity Not available.
METAR KRDD 011753Z 34010KT 10SM CLR 31/05 A2984 RMK AO2 SLP098 T03110050 10311 20239 58005

More Conditions Fewer Conditions

10-Day Weather Forecast

Almanac

Astronomy

Sep. 01, 2014 Rise Set
Actual Time 6:36 AM PDT 7:41 PM PDT
Civil Twilight 6:08 AM PDT 8:09 PM PDT
Nautical Twilight 5:35 AM PDT 8:42 PM PDT
Astronomical Twilight 5:00 AM PDT 9:17 PM PDT
Moon 1:29 PM PDT 11:45 PM PDT
Length of Visible Light 14h 00m
Length of Day
13h 04m
Tomorrow will be 2m 35s shorter.
Waxing Crescent, 43% of the Moon is Illuminated
Today
Waxing Crescent
Sep 2
First Quarter
Sep 8
Full
Sep 15
Last Quarter
Sep 24
New

Today's Extremes

State Highs State Lows

Community

WunderPhotos

Upload Photos

1,749,359 photos uploaded!

Nearby

Snow Depth

Station Depth Elevation
Adin Mountain 1 in 6200 ft
Cedar Pass 0 in 7100 ft
Rubicon #2 0 in 7500 ft
Forestdale Creek 0 in 8029 ft
Blue Lakes 0 in 8000 ft

Earthquake Activity

City Distance Mag. Time & Date
The Geysers, California 122 miles 2.7 2:53 PM PDT
2014-08-29
Minimum magnitude displayed is 2.5.

Coastal Water Temperatures

Place Temperature
No Stations Reporting

Nearby Weather Stations